sensor_id;sensor_type;location;lat;lon;timestamp;pressure;altitude;pressure_sealevel;temperature;humidity
71915;BME280;60387;49.994;14.660;2023-02-21T00:01:15;97710.28;;;11.93;49.70
71915;BME280;60387;49.994;14.660;2023-02-21T00:03:48;97710.59;;;11.91;49.38
71915;BME280;60387;49.994;14.660;2023-02-21T00:06:22;97698.28;;;11.85;50.07
71915;BME280;60387;49.994;14.660;2023-02-21T00:08:55;97703.38;;;11.87;49.84
71915;BME280;60387;49.994;14.660;2023-02-21T00:11:28;97704.28;;;11.82;50.39
71915;BME280;60387;49.994;14.660;2023-02-21T00:14:02;97705.09;;;11.83;50.60
71915;BME280;60387;49.994;14.660;2023-02-21T00:16:35;97704.09;;;11.79;50.15
71915;BME280;60387;49.994;14.660;2023-02-21T00:19:08;97703.13;;;11.75;50.76
71915;BME280;60387;49.994;14.660;2023-02-21T00:21:42;97703.13;;;11.75;50.48
71915;BME280;60387;49.994;14.660;2023-02-21T00:24:18;97709.19;;;11.72;50.57
71915;BME280;60387;49.994;14.660;2023-02-21T00:26:51;97707.88;;;11.69;50.34
71915;BME280;60387;49.994;14.660;2023-02-21T00:29:25;97699.22;;;11.67;50.89
71915;BME280;60387;49.994;14.660;2023-02-21T00:31:58;97695.53;;;11.63;50.47
71915;BME280;60387;49.994;14.660;2023-02-21T00:34:31;97695.34;;;11.60;50.79
71915;BME280;60387;49.994;14.660;2023-02-21T00:37:05;97694.72;;;11.63;50.68
71915;BME280;60387;49.994;14.660;2023-02-21T00:39:38;97695.66;;;11.58;50.90
71915;BME280;60387;49.994;14.660;2023-02-21T00:42:11;97690.53;;;11.57;51.36
71915;BME280;60387;49.994;14.660;2023-02-21T00:44:45;97691.44;;;11.52;50.72
71915;BME280;60387;49.994;14.660;2023-02-21T00:47:18;97703.41;;;11.51;51.35
71915;BME280;60387;49.994;14.660;2023-02-21T00:49:51;97700.50;;;11.48;51.31
71915;BME280;60387;49.994;14.660;2023-02-21T00:52:25;97700.81;;;11.46;50.96
71915;BME280;60387;49.994;14.660;2023-02-21T00:54:58;97705.94;;;11.48;51.25
71915;BME280;60387;49.994;14.660;2023-02-21T00:57:31;97703.03;;;11.44;51.22
71915;BME280;60387;49.994;14.660;2023-02-21T01:00:16;97692.97;;;11.45;51.41
71915;BME280;60387;49.994;14.660;2023-02-21T01:02:49;97699.50;;;11.44;51.19
71915;BME280;60387;49.994;14.660;2023-02-21T01:05:22;97694.72;;;11.41;51.83
71915;BME280;60387;49.994;14.660;2023-02-21T01:07:56;97703.63;;;11.41;51.64
71915;BME280;60387;49.994;14.660;2023-02-21T01:10:29;97696.59;;;11.40;51.87
71915;BME280;60387;49.994;14.660;2023-02-21T01:13:03;97697.41;;;11.41;51.15
71915;BME280;60387;49.994;14.660;2023-02-21T01:15:36;97696.94;;;11.39;51.59
71915;BME280;60387;49.994;14.660;2023-02-21T01:18:13;97694.81;;;11.36;51.29
71915;BME280;60387;49.994;14.660;2023-02-21T01:20:46;97707.88;;;11.34;51.66
71915;BME280;60387;49.994;14.660;2023-02-21T01:23:19;97700.84;;;11.33;51.59
71915;BME280;60387;49.994;14.660;2023-02-21T01:25:52;97698.97;;;11.33;51.85
71915;BME280;60387;49.994;14.660;2023-02-21T01:28:26;97692.72;;;11.33;51.91
71915;BME280;60387;49.994;14.660;2023-02-21T01:30:59;97704.97;;;11.30;52.51
71915;BME280;60387;49.994;14.660;2023-02-21T01:33:37;97690.63;;;11.30;51.92
71915;BME280;60387;49.994;14.660;2023-02-21T01:36:11;97688.50;;;11.27;51.95
71915;BME280;60387;49.994;14.660;2023-02-21T01:38:44;97689.31;;;11.27;51.81
71915;BME280;60387;49.994;14.660;2023-02-21T01:41:18;97695.72;;;11.31;52.13
71915;BME280;60387;49.994;14.660;2023-02-21T01:44:05;97693.84;;;11.32;52.87
71915;BME280;60387;49.994;14.660;2023-02-21T01:46:39;97685.22;;;11.30;52.58
71915;BME280;60387;49.994;14.660;2023-02-21T01:49:15;97681.38;;;11.31;52.41
71915;BME280;60387;49.994;14.660;2023-02-21T01:51:50;97680.56;;;11.30;53.09
71915;BME280;60387;49.994;14.660;2023-02-21T01:54:26;97686.00;;;11.30;52.97
71915;BME280;60387;49.994;14.660;2023-02-21T01:57:01;97691.91;;;11.32;53.10
71915;BME280;60387;49.994;14.660;2023-02-21T01:59:36;97683.00;;;11.32;52.87
71915;BME280;60387;49.994;14.660;2023-02-21T02:02:34;97679.16;;;11.33;52.92
71915;BME280;60387;49.994;14.660;2023-02-21T02:05:10;97681.44;;;11.39;53.02
71915;BME280;60387;49.994;14.660;2023-02-21T02:07:44;97678.13;;;11.42;52.49
71915;BME280;60387;49.994;14.660;2023-02-21T02:10:18;97668.25;;;11.46;52.85
71915;BME280;60387;49.994;14.660;2023-02-21T02:35:57;97657.94;;;11.70;53.10
71915;BME280;60387;49.994;14.660;2023-02-21T02:38:43;97659.22;;;11.73;52.53
71915;BME280;60387;49.994;14.660;2023-02-21T02:41:33;97655.41;;;11.74;53.19
71915;BME280;60387;49.994;14.660;2023-02-21T02:44:30;97646.94;;;11.75;53.13
71915;BME280;60387;49.994;14.660;2023-02-21T02:47:11;97640.28;;;11.81;52.95
71915;BME280;60387;49.994;14.660;2023-02-21T02:49:47;97636.94;;;11.84;52.61
71915;BME280;60387;49.994;14.660;2023-02-21T02:52:22;97637.25;;;11.83;53.49
71915;BME280;60387;49.994;14.660;2023-02-21T02:55:04;97634.22;;;11.84;53.26
71915;BME280;60387;49.994;14.660;2023-02-21T02:57:52;97636.16;;;11.84;53.25
71915;BME280;60387;49.994;14.660;2023-02-21T03:00:26;97634.22;;;11.84;52.85
71915;BME280;60387;49.994;14.660;2023-02-21T03:03:39;97632.00;;;11.86;53.21
71915;BME280;60387;49.994;14.660;2023-02-21T03:06:18;97626.88;;;11.85;53.29
71915;BME280;60387;49.994;14.660;2023-02-21T03:09:13;97631.50;;;11.84;53.14
71915;BME280;60387;49.994;14.660;2023-02-21T03:11:59;97635.03;;;11.85;52.97
71915;BME280;60387;49.994;14.660;2023-02-21T03:15:04;97642.06;;;11.86;53.01
71915;BME280;60387;49.994;14.660;2023-02-21T03:17:39;97622.41;;;11.80;53.23
71915;BME280;60387;49.994;14.660;2023-02-21T03:20:15;97638.84;;;11.84;53.18
71915;BME280;60387;49.994;14.660;2023-02-21T03:22:51;97628.78;;;11.84;52.92
71915;BME280;60387;49.994;14.660;2023-02-21T03:25:26;97617.94;;;11.84;52.89
71915;BME280;60387;49.994;14.660;2023-02-21T03:28:00;97622.28;;;11.85;53.36
71915;BME280;60387;49.994;14.660;2023-02-21T03:30:34;97623.06;;;11.86;52.70
71915;BME280;60387;49.994;14.660;2023-02-21T03:33:08;97614.44;;;11.84;53.06
71915;BME280;60387;49.994;14.660;2023-02-21T03:35:41;97625.78;;;11.86;52.84
71915;BME280;60387;49.994;14.660;2023-02-21T03:38:15;97626.88;;;11.85;52.64
71915;BME280;60387;49.994;14.660;2023-02-21T03:40:48;97621.16;;;11.86;53.15
71915;BME280;60387;49.994;14.660;2023-02-21T03:43:21;97619.84;;;11.84;53.20
71915;BME280;60387;49.994;14.660;2023-02-21T03:45:55;97619.22;;;11.87;52.91
71915;BME280;60387;49.994;14.660;2023-02-21T03:48:28;97622.56;;;11.84;53.17
71915;BME280;60387;49.994;14.660;2023-02-21T03:51:02;97616.03;;;11.85;53.57
71915;BME280;60387;49.994;14.660;2023-02-21T03:53:36;97607.06;;;11.84;53.35
71915;BME280;60387;49.994;14.660;2023-02-21T03:56:09;97618.25;;;11.83;53.28
71915;BME280;60387;49.994;14.660;2023-02-21T03:58:42;97622.09;;;11.82;53.07
71915;BME280;60387;49.994;14.660;2023-02-21T04:01:16;97611.25;;;11.82;53.05
71915;BME280;60387;49.994;14.660;2023-02-21T04:03:49;97615.22;;;11.84;53.56
71915;BME280;60387;49.994;14.660;2023-02-21T04:06:22;97627.69;;;11.85;53.40
71915;BME280;60387;49.994;14.660;2023-02-21T04:08:56;97626.06;;;11.84;53.63
71915;BME280;60387;49.994;14.660;2023-02-21T04:11:30;97621.47;;;11.85;53.45
71915;BME280;60387;49.994;14.660;2023-02-21T04:14:04;97618.13;;;11.88;53.34
71915;BME280;60387;49.994;14.660;2023-02-21T04:16:37;97622.47;;;11.89;53.47
71915;BME280;60387;49.994;14.660;2023-02-21T04:19:10;97613.19;;;11.90;53.12
71915;BME280;60387;49.994;14.660;2023-02-21T04:21:44;97612.38;;;11.89;53.44
71915;BME280;60387;49.994;14.660;2023-02-21T04:24:17;97617.50;;;11.91;53.17
71915;BME280;60387;49.994;14.660;2023-02-21T04:26:51;97600.09;;;11.92;53.42
71915;BME280;60387;49.994;14.660;2023-02-21T04:29:24;97603.31;;;11.94;53.09
71915;BME280;60387;49.994;14.660;2023-02-21T04:31:58;97600.09;;;11.92;53.13
71915;BME280;60387;49.994;14.660;2023-02-21T04:34:31;97603.31;;;11.94;53.19
71915;BME280;60387;49.994;14.660;2023-02-21T04:37:05;97602.34;;;11.90;53.60
71915;BME280;60387;49.994;14.660;2023-02-21T04:39:38;97594.84;;;11.95;53.29
71915;BME280;60387;49.994;14.660;2023-02-21T04:42:12;97595.63;;;11.96;53.55
71915;BME280;60387;49.994;14.660;2023-02-21T04:44:45;97584.78;;;11.96;53.27
71915;BME280;60387;49.994;14.660;2023-02-21T04:47:19;97586.72;;;11.95;53.57
71915;BME280;60387;49.994;14.660;2023-02-21T04:49:52;97587.50;;;11.96;53.13
71915;BME280;60387;49.994;14.660;2023-02-21T04:52:26;97579.34;;;11.96;53.25
71915;BME280;60387;49.994;14.660;2023-02-21T04:54:59;97576.63;;;11.96;53.29
71915;BME280;60387;49.994;14.660;2023-02-21T04:57:33;97573.94;;;11.96;53.24
71915;BME280;60387;49.994;14.660;2023-02-21T05:00:06;97566.41;;;11.93;53.88
71915;BME280;60387;49.994;14.660;2023-02-21T05:02:43;97567.06;;;11.90;53.42
71915;BME280;60387;49.994;14.660;2023-02-21T05:05:17;97561.94;;;11.88;53.67
71915;BME280;60387;49.994;14.660;2023-02-21T05:07:50;97554.41;;;11.85;53.71
71915;BME280;60387;49.994;14.660;2023-02-21T05:10:23;97548.63;;;11.78;53.64
71915;BME280;60387;49.994;14.660;2023-02-21T05:12:57;97551.34;;;11.78;53.71
71915;BME280;60387;49.994;14.660;2023-02-21T05:15:30;97545.75;;;11.75;53.86
71915;BME280;60387;49.994;14.660;2023-02-21T05:18:03;97550.53;;;11.78;54.09
71915;BME280;60387;49.994;14.660;2023-02-21T05:20:36;97566.03;;;11.77;53.43
71915;BME280;60387;49.994;14.660;2023-02-21T05:23:10;97562.81;;;11.75;54.19
71915;BME280;60387;49.994;14.660;2023-02-21T05:25:43;97568.41;;;11.79;54.17
71915;BME280;60387;49.994;14.660;2023-02-21T05:28:16;97558.19;;;11.76;53.90
71915;BME280;60387;49.994;14.660;2023-02-21T05:30:50;97563.63;;;11.76;53.97
71915;BME280;60387;49.994;14.660;2023-02-21T05:33:23;97561.41;;;11.78;53.98
71915;BME280;60387;49.994;14.660;2023-02-21T05:35:58;97566.22;;;11.81;53.61
71915;BME280;60387;49.994;14.660;2023-02-21T05:38:31;97558.06;;;11.81;54.27
71915;BME280;60387;49.994;14.660;2023-02-21T05:41:05;97562.06;;;11.83;53.57
71915;BME280;60387;49.994;14.660;2023-02-21T05:43:39;97567.19;;;11.85;53.56
71915;BME280;60387;49.994;14.660;2023-02-21T05:46:25;97568.00;;;11.85;53.43
71915;BME280;60387;49.994;14.660;2023-02-21T05:49:01;97569.91;;;11.85;53.60
71915;BME280;60387;49.994;14.660;2023-02-21T05:51:41;97581.75;;;11.89;53.51
71915;BME280;60387;49.994;14.660;2023-02-21T05:54:17;97583.00;;;11.91;53.72
71915;BME280;60387;49.994;14.660;2023-02-21T05:56:51;97587.66;;;11.91;53.24
71915;BME280;60387;49.994;14.660;2023-02-21T05:59:24;97605.53;;;11.92;53.73
71915;BME280;60387;49.994;14.660;2023-02-21T06:01:57;97612.56;;;11.93;53.28
71915;BME280;60387;49.994;14.660;2023-02-21T06:04:31;97621.66;;;11.97;53.50
71915;BME280;60387;49.994;14.660;2023-02-21T06:07:04;97614.63;;;11.96;53.25
71915;BME280;60387;49.994;14.660;2023-02-21T06:09:38;97628.72;;;11.98;53.61
71915;BME280;60387;49.994;14.660;2023-02-21T06:12:11;97610.50;;;11.98;53.58
71915;BME280;60387;49.994;14.660;2023-02-21T06:14:44;97619.47;;;11.99;53.56
71915;BME280;60387;49.994;14.660;2023-02-21T06:17:17;97614.53;;;12.01;53.16
71915;BME280;60387;49.994;14.660;2023-02-21T06:19:51;97622.53;;;12.06;53.60
71915;BME280;60387;49.994;14.660;2023-02-21T06:22:24;97625.25;;;12.06;53.44
71915;BME280;60387;49.994;14.660;2023-02-21T06:24:57;97628.94;;;12.10;53.36
71915;BME280;60387;49.994;14.660;2023-02-21T06:27:31;97622.88;;;12.13;53.70
71915;BME280;60387;49.994;14.660;2023-02-21T06:30:05;97629.75;;;12.19;53.08
71915;BME280;60387;49.994;14.660;2023-02-21T06:32:38;97637.63;;;12.20;53.16
71915;BME280;60387;49.994;14.660;2023-02-21T06:35:12;97625.94;;;12.20;53.57
71915;BME280;60387;49.994;14.660;2023-02-21T06:37:45;97636.66;;;12.25;53.42
71915;BME280;60387;49.994;14.660;2023-02-21T06:40:18;97635.56;;;12.26;53.56
71915;BME280;60387;49.994;14.660;2023-02-21T06:42:52;97634.44;;;12.27;53.08
71915;BME280;60387;49.994;14.660;2023-02-21T06:45:25;97643.06;;;12.29;53.08
71915;BME280;60387;49.994;14.660;2023-02-21T06:47:58;97646.44;;;12.34;52.95
71915;BME280;60387;49.994;14.660;2023-02-21T06:50:32;97655.75;;;12.42;53.23
71915;BME280;60387;49.994;14.660;2023-02-21T06:53:05;97651.91;;;12.43;53.20
71915;BME280;60387;49.994;14.660;2023-02-21T06:55:38;97646.31;;;12.48;52.87
71915;BME280;60387;49.994;14.660;2023-02-21T06:58:12;97644.91;;;12.50;53.10
71915;BME280;60387;49.994;14.660;2023-02-21T07:00:45;97647.31;;;12.52;52.88
71915;BME280;60387;49.994;14.660;2023-02-21T07:03:18;97648.25;;;12.56;52.81
71915;BME280;60387;49.994;14.660;2023-02-21T07:05:52;97653.25;;;12.62;52.74
71915;BME280;60387;49.994;14.660;2023-02-21T07:08:25;97665.91;;;12.67;52.62
71915;BME280;60387;49.994;14.660;2023-02-21T07:10:58;97643.19;;;12.63;52.92
71915;BME280;60387;49.994;14.660;2023-02-21T07:13:32;97659.81;;;12.70;52.26
71915;BME280;60387;49.994;14.660;2023-02-21T07:16:06;97660.47;;;12.75;52.50
71915;BME280;60387;49.994;14.660;2023-02-21T07:18:39;97661.28;;;12.76;52.56
71915;BME280;60387;49.994;14.660;2023-02-21T07:21:14;97648.66;;;12.79;52.29
71915;BME280;60387;49.994;14.660;2023-02-21T07:23:47;97664.00;;;12.84;52.34
71915;BME280;60387;49.994;14.660;2023-02-21T07:26:21;97664.19;;;12.87;52.20
71915;BME280;60387;49.994;14.660;2023-02-21T07:28:54;97668.88;;;12.95;52.16
71915;BME280;60387;49.994;14.660;2023-02-21T07:31:27;97668.72;;;13.00;52.00
71915;BME280;60387;49.994;14.660;2023-02-21T07:34:01;97661.19;;;12.97;52.22
71915;BME280;60387;49.994;14.660;2023-02-21T07:36:36;97667.13;;;13.08;52.24
71915;BME280;60387;49.994;14.660;2023-02-21T07:39:10;97658.00;;;13.12;51.97
71915;BME280;60387;49.994;14.660;2023-02-21T07:41:43;97665.22;;;13.17;52.08
71915;BME280;60387;49.994;14.660;2023-02-21T07:44:16;97664.25;;;13.21;51.71
71915;BME280;60387;49.994;14.660;2023-02-21T07:46:50;97668.91;;;13.21;51.70
71915;BME280;60387;49.994;14.660;2023-02-21T07:49:23;97674.19;;;13.26;51.78
71915;BME280;60387;49.994;14.660;2023-02-21T07:51:56;97680.59;;;13.30;51.85
71915;BME280;60387;49.994;14.660;2023-02-21T07:54:30;97685.41;;;13.33;51.64
71915;BME280;60387;49.994;14.660;2023-02-21T07:57:03;97690.03;;;13.32;51.65
71915;BME280;60387;49.994;14.660;2023-02-21T07:59:36;97688.75;;;13.38;51.98
71915;BME280;60387;49.994;14.660;2023-02-21T08:02:13;97696.94;;;13.47;51.80
71915;BME280;60387;49.994;14.660;2023-02-21T08:04:49;97701.06;;;13.53;51.58
71915;BME280;60387;49.994;14.660;2023-02-21T08:07:23;97699.81;;;13.59;51.54
71915;BME280;60387;49.994;14.660;2023-02-21T08:09:56;97710.69;;;13.59;51.45
71915;BME280;60387;49.994;14.660;2023-02-21T08:12:29;97700.91;;;13.66;51.47
71915;BME280;60387;49.994;14.660;2023-02-21T08:15:03;97700.59;;;13.68;51.35
71915;BME280;60387;49.994;14.660;2023-02-21T08:17:36;97709.75;;;13.72;51.30
71915;BME280;60387;49.994;14.660;2023-02-21T08:20:10;97714.69;;;13.78;51.32
71915;BME280;60387;49.994;14.660;2023-02-21T08:22:43;97710.19;;;13.82;51.50
71915;BME280;60387;49.994;14.660;2023-02-21T08:25:17;97713.88;;;13.86;50.92
71915;BME280;60387;49.994;14.660;2023-02-21T08:27:50;97720.47;;;13.85;51.15
71915;BME280;60387;49.994;14.660;2023-02-21T08:30:23;97721.09;;;13.91;51.07
71915;BME280;60387;49.994;14.660;2023-02-21T08:32:56;97717.72;;;13.94;50.78
71915;BME280;60387;49.994;14.660;2023-02-21T08:35:30;97713.06;;;13.94;51.02
71915;BME280;60387;49.994;14.660;2023-02-21T08:38:03;97723.00;;;13.99;50.87
71915;BME280;60387;49.994;14.660;2023-02-21T08:40:36;97721.22;;;14.03;51.16
71915;BME280;60387;49.994;14.660;2023-02-21T08:43:10;97721.22;;;14.03;50.89
71915;BME280;60387;49.994;14.660;2023-02-21T08:45:43;97728.09;;;14.09;50.94
71915;BME280;60387;49.994;14.660;2023-02-21T08:48:16;97719.13;;;14.17;50.82
71915;BME280;60387;49.994;14.660;2023-02-21T08:50:50;97730.69;;;14.22;50.65
71915;BME280;60387;49.994;14.660;2023-02-21T08:53:23;97730.00;;;14.25;50.47
71915;BME280;60387;49.994;14.660;2023-02-21T08:55:56;97728.41;;;14.33;50.19
71915;BME280;60387;49.994;14.660;2023-02-21T08:58:30;97716.22;;;14.30;50.42
71915;BME280;60387;49.994;14.660;2023-02-21T09:01:03;97728.53;;;14.45;50.40
71915;BME280;60387;49.994;14.660;2023-02-21T09:03:36;97718.72;;;14.52;50.38
71915;BME280;60387;49.994;14.660;2023-02-21T09:06:10;97727.69;;;14.61;50.04
71915;BME280;60387;49.994;14.660;2023-02-21T09:08:43;97716.41;;;14.71;50.14
71915;BME280;60387;49.994;14.660;2023-02-21T09:11:16;97718.09;;;14.84;49.96
71915;BME280;60387;49.994;14.660;2023-02-21T09:13:50;97713.25;;;14.90;49.37
71915;BME280;60387;49.994;14.660;2023-02-21T09:16:23;97718.22;;;14.96;49.20
71915;BME280;60387;49.994;14.660;2023-02-21T09:18:58;97720.59;;;14.98;49.13
71915;BME280;60387;49.994;14.660;2023-02-21T09:21:32;97731.78;;;15.05;48.86
71915;BME280;60387;49.994;14.660;2023-02-21T09:24:06;97727.94;;;15.06;49.36
71915;BME280;60387;49.994;14.660;2023-02-21T09:26:39;97725.16;;;15.14;49.35
71915;BME280;60387;49.994;14.660;2023-02-21T09:29:12;97727.66;;;15.28;49.13
71915;BME280;60387;49.994;14.660;2023-02-21T09:31:46;97734.03;;;15.40;48.95
71915;BME280;60387;49.994;14.660;2023-02-21T09:34:19;97736.81;;;15.52;48.68
71915;BME280;60387;49.994;14.660;2023-02-21T09:36:52;97739.38;;;15.57;48.36
71915;BME280;60387;49.994;14.660;2023-02-21T09:39:26;97736.91;;;15.64;48.45
71915;BME280;60387;49.994;14.660;2023-02-21T09:41:59;97746.97;;;15.72;48.30
71915;BME280;60387;49.994;14.660;2023-02-21T09:44:33;97746.28;;;15.75;47.95
71915;BME280;60387;49.994;14.660;2023-02-21T09:47:09;97752.22;;;15.77;48.59
71915;BME280;60387;49.994;14.660;2023-02-21T09:49:47;97746.88;;;15.81;48.05
71915;BME280;60387;49.994;14.660;2023-02-21T09:52:31;97748.94;;;15.84;48.09
71915;BME280;60387;49.994;14.660;2023-02-21T09:55:35;97746.56;;;15.82;47.39
71915;BME280;60387;49.994;14.660;2023-02-21T09:58:12;97740.28;;;15.82;47.52
71915;BME280;60387;49.994;14.660;2023-02-21T10:00:46;97755.41;;;15.79;47.79
71915;BME280;60387;49.994;14.660;2023-02-21T10:09:00;97743.22;;;15.56;46.98
71915;BME280;60387;49.994;14.660;2023-02-21T10:17:12;97763.97;;;15.49;47.38
71915;BME280;60387;49.994;14.660;2023-02-21T10:19:53;97770.25;;;15.49;47.67
71915;BME280;60387;49.994;14.660;2023-02-21T10:22:37;97764.78;;;15.49;47.36
71915;BME280;60387;49.994;14.660;2023-02-21T10:25:30;97766.53;;;15.54;47.72
71915;BME280;60387;49.994;14.660;2023-02-21T10:28:03;97762.66;;;15.55;47.47
71915;BME280;60387;49.994;14.660;2023-02-21T10:30:37;97765.56;;;15.50;47.38
71915;BME280;60387;49.994;14.660;2023-02-21T10:33:10;97769.31;;;15.45;47.30
71915;BME280;60387;49.994;14.660;2023-02-21T10:35:43;97766.09;;;15.43;47.58
71915;BME280;60387;49.994;14.660;2023-02-21T10:38:20;97766.91;;;15.44;47.78
71915;BME280;60387;49.994;14.660;2023-02-21T10:40:59;97780.06;;;15.42;47.37
71915;BME280;60387;49.994;14.660;2023-02-21T10:43:46;97766.44;;;15.42;47.64
71915;BME280;60387;49.994;14.660;2023-02-21T10:46:27;97772.69;;;15.42;47.77
71915;BME280;60387;49.994;14.660;2023-02-21T10:49:23;97768.31;;;15.50;47.94
71915;BME280;60387;49.994;14.660;2023-02-21T10:52:17;97755.88;;;15.61;47.71
71915;BME280;60387;49.994;14.660;2023-02-21T10:55:16;97763.84;;;15.66;47.77
71915;BME280;60387;49.994;14.660;2023-02-21T10:57:53;97764.81;;;15.70;47.66
71915;BME280;60387;49.994;14.660;2023-02-21T11:03:23;97750.47;;;15.73;47.40
71915;BME280;60387;49.994;14.660;2023-02-21T11:05:57;97769.53;;;15.81;47.64
71915;BME280;60387;49.994;14.660;2023-02-21T11:08:37;97758.41;;;15.86;47.73
71915;BME280;60387;49.994;14.660;2023-02-21T11:11:10;97756.63;;;15.90;47.57
71915;BME280;60387;49.994;14.660;2023-02-21T11:13:44;97757.22;;;15.96;47.31
71915;BME280;60387;49.994;14.660;2023-02-21T11:16:19;97753.66;;;15.95;46.77
71915;BME280;60387;49.994;14.660;2023-02-21T11:19:06;97751.53;;;16.01;47.31
71915;BME280;60387;49.994;14.660;2023-02-21T11:21:41;97758.38;;;16.07;47.03
71915;BME280;60387;49.994;14.660;2023-02-21T11:24:14;97756.78;;;16.06;46.65
71915;BME280;60387;49.994;14.660;2023-02-21T11:26:50;97761.44;;;16.05;46.98
71915;BME280;60387;49.994;14.660;2023-02-21T11:29:24;97761.94;;;16.07;46.84
71915;BME280;60387;49.994;14.660;2023-02-21T11:31:58;97755.97;;;16.05;47.08
71915;BME280;60387;49.994;14.660;2023-02-21T11:34:40;97757.78;;;16.01;46.88
71915;BME280;60387;49.994;14.660;2023-02-21T11:37:14;97746.53;;;16.03;46.88
71915;BME280;60387;49.994;14.660;2023-02-21T11:39:50;97754.94;;;15.98;47.02
71915;BME280;60387;49.994;14.660;2023-02-21T11:42:27;97745.34;;;15.92;47.04
71915;BME280;60387;49.994;14.660;2023-02-21T11:48:01;97745.19;;;15.88;47.38
71915;BME280;60387;49.994;14.660;2023-02-21T11:50:39;97753.41;;;15.88;47.16
71915;BME280;60387;49.994;14.660;2023-02-21T11:53:39;97750.19;;;15.86;47.22
71915;BME280;60387;49.994;14.660;2023-02-21T11:56:23;97745.88;;;15.85;47.23
71915;BME280;60387;49.994;14.660;2023-02-21T12:10:50;97740.16;;;15.58;47.79
71915;BME280;60387;49.994;14.660;2023-02-21T12:22:34;97740.81;;;15.75;47.88
71915;BME280;60387;49.994;14.660;2023-02-21T12:31:17;97741.00;;;15.70;47.63
71915;BME280;60387;49.994;14.660;2023-02-21T12:42:27;97730.56;;;15.72;47.70
71915;BME280;60387;49.994;14.660;2023-02-21T12:45:33;97732.19;;;15.73;47.56
71915;BME280;60387;49.994;14.660;2023-02-21T12:48:19;97728.44;;;15.78;47.61
71915;BME280;60387;49.994;14.660;2023-02-21T12:51:02;97729.22;;;15.78;47.51
71915;BME280;60387;49.994;14.660;2023-02-21T12:56:31;97709.66;;;15.76;47.56
71915;BME280;60387;49.994;14.660;2023-02-21T13:01:54;97702.03;;;15.82;47.72
71915;BME280;60387;49.994;14.660;2023-02-21T13:07:34;97697.22;;;15.99;47.49
71915;BME280;60387;49.994;14.660;2023-02-21T13:10:22;97691.06;;;16.02;47.58
71915;BME280;60387;49.994;14.660;2023-02-21T13:13:01;97698.06;;;16.12;47.25
71915;BME280;60387;49.994;14.660;2023-02-21T13:15:39;97687.03;;;16.20;47.25
71915;BME280;60387;49.994;14.660;2023-02-21T13:18:17;97697.75;;;16.25;46.60
71915;BME280;60387;49.994;14.660;2023-02-21T13:29:31;97691.00;;;16.43;46.70
71915;BME280;60387;49.994;14.660;2023-02-21T13:32:12;97683.25;;;16.45;46.97
71915;BME280;60387;49.994;14.660;2023-02-21T13:34:53;97692.38;;;16.49;46.49
71915;BME280;60387;49.994;14.660;2023-02-21T13:37:30;97691.25;;;16.50;46.47
71915;BME280;60387;49.994;14.660;2023-02-21T13:40:31;97696.47;;;16.55;46.51
71915;BME280;60387;49.994;14.660;2023-02-21T13:43:26;97697.63;;;16.54;46.40
71915;BME280;60387;49.994;14.660;2023-02-21T14:10:58;97664.06;;;16.33;46.84
71915;BME280;60387;49.994;14.660;2023-02-21T14:19:02;97663.19;;;16.41;46.49
71915;BME280;60387;49.994;14.660;2023-02-21T14:21:43;97662.19;;;16.45;46.62
71915;BME280;60387;49.994;14.660;2023-02-21T14:24:25;97666.16;;;16.48;46.42
71915;BME280;60387;49.994;14.660;2023-02-21T14:32:37;97670.03;;;16.47;46.22
71915;BME280;60387;49.994;14.660;2023-02-21T14:38:06;97661.69;;;16.43;46.44
71915;BME280;60387;49.994;14.660;2023-02-21T14:52:22;97668.97;;;16.27;46.21
71915;BME280;60387;49.994;14.660;2023-02-21T15:07:23;97671.94;;;15.90;46.67
71915;BME280;60387;49.994;14.660;2023-02-21T15:10:21;97669.84;;;15.87;46.73
71915;BME280;60387;49.994;14.660;2023-02-21T15:12:58;97669.06;;;15.87;46.83
71915;BME280;60387;49.994;14.660;2023-02-21T15:15:34;97665.41;;;15.83;46.65
71915;BME280;60387;49.994;14.660;2023-02-21T15:18:12;97669.13;;;15.78;46.93
71915;BME280;60387;49.994;14.660;2023-02-21T15:21:18;97675.16;;;15.72;47.13
71915;BME280;60387;49.994;14.660;2023-02-21T15:24:01;97670.69;;;15.67;47.11
71915;BME280;60387;49.994;14.660;2023-02-21T15:26:35;97672.47;;;15.63;47.31
71915;BME280;60387;49.994;14.660;2023-02-21T15:29:16;97666.91;;;15.60;47.19
71915;BME280;60387;49.994;14.660;2023-02-21T15:31:54;97670.28;;;15.57;47.24
71915;BME280;60387;49.994;14.660;2023-02-21T15:37:27;97671.50;;;15.47;47.64
71915;BME280;60387;49.994;14.660;2023-02-21T15:40:14;97674.88;;;15.44;47.39
71915;BME280;60387;49.994;14.660;2023-02-21T15:42:49;97668.97;;;15.42;47.77
71915;BME280;60387;49.994;14.660;2023-02-21T15:45:26;97672.69;;;15.38;48.01
71915;BME280;60387;49.994;14.660;2023-02-21T15:48:02;97662.91;;;15.37;47.66
71915;BME280;60387;49.994;14.660;2023-02-21T15:53:20;97668.56;;;15.32;47.64
71915;BME280;60387;49.994;14.660;2023-02-21T15:56:21;97668.88;;;15.30;47.53
71915;BME280;60387;49.994;14.660;2023-02-21T15:59:24;97665.53;;;15.25;47.73
71915;BME280;60387;49.994;14.660;2023-02-21T16:04:46;97674.53;;;15.25;47.88
71915;BME280;60387;49.994;14.660;2023-02-21T16:07:32;97679.53;;;15.23;47.90
71915;BME280;60387;49.994;14.660;2023-02-21T16:10:09;97672.13;;;15.24;47.79
71915;BME280;60387;49.994;14.660;2023-02-21T16:12:44;97676.34;;;15.21;47.98
71915;BME280;60387;49.994;14.660;2023-02-21T16:18:04;97677.66;;;15.15;48.07
71915;BME280;60387;49.994;14.660;2023-02-21T16:20:40;97679.44;;;15.11;48.03
71915;BME280;60387;49.994;14.660;2023-02-21T16:28:32;97684.13;;;15.02;48.36
71915;BME280;60387;49.994;14.660;2023-02-21T16:31:08;97692.31;;;15.02;48.31